Time;durP1;ratioP1;P1;durP2;ratioP2;P2;SDS_P1;SDS_P2;PMS_P1;PMS_P2;Temp;Humidity;BMP_temperature;BMP_pressure;BME280_temperature;BME280_humidity;BME280_pressure;Samples;Min_cycle;Max_cycle;Signal;HPM_P1;HPM_P2
2022/10/31 00:00:46;;;;;;;5.83;4.43;;;12.80;99.90;;;;;;938174;150;27422;-79
2022/10/31 00:03:13;;;;;;;6.87;4.40;;;12.80;99.90;;;;;;942135;147;27307;-79
2022/10/31 00:05:42;;;;;;;5.43;3.97;;;12.80;99.90;;;;;;935113;149;27316;-79
2022/10/31 00:08:08;;;;;;;8.20;4.73;;;12.70;99.90;;;;;;934953;149;27474;-79
2022/10/31 00:10:35;;;;;;;4.47;3.87;;;12.70;99.90;;;;;;928492;149;27329;-79
2022/10/31 00:13:02;;;;;;;7.40;4.07;;;12.70;99.90;;;;;;922865;150;27493;-79
2022/10/31 00:15:28;;;;;;;5.90;4.13;;;12.70;99.90;;;;;;931409;150;27293;-79
2022/10/31 00:17:55;;;;;;;7.43;4.27;;;12.60;99.90;;;;;;927484;152;27388;-79
2022/10/31 00:20:21;;;;;;;5.00;3.90;;;12.60;99.90;;;;;;932387;149;27445;-79
2022/10/31 00:22:48;;;;;;;6.67;4.37;;;12.60;99.90;;;;;;926557;150;28118;-79
2022/10/31 00:25:15;;;;;;;6.20;3.73;;;12.60;99.90;;;;;;930284;149;27314;-79
2022/10/31 00:27:41;;;;;;;6.73;4.03;;;12.60;99.90;;;;;;925401;150;27451;-79
2022/10/31 00:30:08;;;;;;;6.07;4.07;;;12.60;99.90;;;;;;937782;151;27305;-79
2022/10/31 00:32:34;;;;;;;6.60;4.27;;;12.50;99.90;;;;;;940728;150;27850;-79
2022/10/31 00:35:01;;;;;;;4.63;4.20;;;12.50;99.90;;;;;;936484;151;27365;-79
2022/10/31 00:37:27;;;;;;;6.87;5.27;;;12.50;99.90;;;;;;935428;151;27293;-79
2022/10/31 00:39:54;;;;;;;6.33;4.70;;;12.50;99.90;;;;;;936011;151;27435;-79
2022/10/31 00:42:21;;;;;;;6.90;4.90;;;12.50;99.90;;;;;;930655;150;27897;-79
2022/10/31 00:44:47;;;;;;;16.77;10.50;;;12.40;99.90;;;;;;933634;151;27439;-79
2022/10/31 00:47:14;;;;;;;16.33;9.93;;;12.40;99.90;;;;;;952045;149;27368;-79
2022/10/31 00:49:40;;;;;;;11.53;7.60;;;12.40;99.90;;;;;;948956;149;28704;-79
2022/10/31 00:52:07;;;;;;;19.47;13.70;;;12.40;99.90;;;;;;942031;151;27387;-79
2022/10/31 00:54:34;;;;;;;14.03;10.10;;;12.40;99.90;;;;;;950223;149;27431;-79
2022/10/31 00:57:00;;;;;;;13.43;9.17;;;12.40;99.90;;;;;;948339;149;27356;-79
2022/10/31 00:59:27;;;;;;;8.90;5.97;;;12.30;99.90;;;;;;947752;149;27392;-79
2022/10/31 01:01:53;;;;;;;5.93;5.33;;;12.30;99.90;;;;;;947698;149;27342;-79
2022/10/31 01:04:20;;;;;;;6.73;5.80;;;12.30;99.90;;;;;;925990;153;27338;-79
2022/10/31 01:06:47;;;;;;;7.37;5.27;;;12.30;99.90;;;;;;937119;151;27436;-79
2022/10/31 01:09:13;;;;;;;6.00;5.40;;;12.20;99.90;;;;;;951633;149;27312;-79
2022/10/31 01:11:40;;;;;;;6.20;5.00;;;12.20;99.90;;;;;;932715;150;27381;-79
2022/10/31 01:14:06;;;;;;;6.17;5.57;;;12.20;99.90;;;;;;947734;149;27373;-79
2022/10/31 01:16:33;;;;;;;7.10;4.87;;;12.20;99.90;;;;;;948857;149;27320;-79
2022/10/31 01:18:59;;;;;;;5.33;3.80;;;12.10;99.90;;;;;;948694;149;27302;-79
2022/10/31 01:21:26;;;;;;;8.50;5.87;;;12.10;99.90;;;;;;949549;149;27294;-79
2022/10/31 01:23:55;;;;;;;7.03;4.27;;;12.10;99.90;;;;;;946908;149;27423;-79
2022/10/31 01:26:25;;;;;;;6.73;4.13;;;12.00;99.90;;;;;;943113;149;28920;-79
2022/10/31 01:28:51;;;;;;;5.03;4.10;;;12.00;99.90;;;;;;941845;147;27382;-79
2022/10/31 01:31:18;;;;;;;7.37;4.43;;;12.00;99.90;;;;;;940889;150;27319;-79
2022/10/31 01:33:45;;;;;;;5.87;4.77;;;11.90;99.90;;;;;;941337;147;27238;-79
2022/10/31 01:36:17;;;;;;;7.43;4.30;;;12.00;99.90;;;;;;923681;150;27359;-79
2022/10/31 01:38:43;;;;;;;4.90;4.13;;;11.90;99.90;;;;;;919548;150;27382;-79
2022/10/31 01:41:10;;;;;;;4.53;3.87;;;11.90;99.90;;;;;;934158;150;27501;-79
2022/10/31 01:43:48;;;;;;;6.77;4.03;;;11.80;99.90;;;;;;929339;149;27346;-79
2022/10/31 01:46:15;;;;;;;7.03;4.37;;;11.90;99.90;;;;;;919714;150;27428;-79
2022/10/31 01:48:42;;;;;;;6.53;4.67;;;11.80;99.90;;;;;;929052;149;27825;-79
2022/10/31 01:51:08;;;;;;;6.27;3.40;;;11.80;99.90;;;;;;942064;147;27350;-79
2022/10/31 01:53:35;;;;;;;4.20;3.80;;;11.80;99.90;;;;;;929489;149;27343;-79
2022/10/31 01:56:01;;;;;;;4.10;3.70;;;11.70;99.90;;;;;;920945;150;27431;-79
2022/10/31 01:58:28;;;;;;;4.17;3.53;;;11.70;99.90;;;;;;943851;147;27452;-79
2022/10/31 02:00:55;;;;;;;4.30;3.83;;;11.70;99.90;;;;;;941914;150;27361;-79
2022/10/31 02:03:21;;;;;;;6.03;3.63;;;11.70;99.90;;;;;;941241;149;27425;-79
2022/10/31 02:05:48;;;;;;;3.63;3.33;;;11.70;99.90;;;;;;936954;149;27334;-79
2022/10/31 02:08:14;;;;;;;3.07;2.87;;;11.70;99.90;;;;;;936837;148;27419;-79
2022/10/31 02:10:41;;;;;;;3.50;3.20;;;11.70;99.90;;;;;;935249;151;27398;-79
2022/10/31 02:13:08;;;;;;;5.27;3.73;;;11.70;99.90;;;;;;933848;148;27818;-78
2022/10/31 02:15:34;;;;;;;3.43;3.13;;;11.60;99.90;;;;;;946308;147;27432;-77
2022/10/31 02:18:01;;;;;;;4.63;3.80;;;11.60;99.90;;;;;;922741;150;27463;-77
2022/10/31 02:20:33;;;;;;;4.37;3.77;;;11.60;99.90;;;;;;931467;149;27326;-79
2022/10/31 02:23:09;;;;;;;3.97;3.60;;;11.60;99.90;;;;;;930092;149;27421;-79
2022/10/31 02:25:41;;;;;;;5.73;3.67;;;11.60;99.90;;;;;;941167;147;27361;-80
2022/10/31 02:28:19;;;;;;;3.60;3.30;;;11.50;99.90;;;;;;934598;149;27829;-80
2022/10/31 02:30:52;;;;;;;4.43;4.03;;;11.50;99.90;;;;;;941506;148;27282;-80
2022/10/31 02:33:27;;;;;;;5.60;3.57;;;11.50;99.90;;;;;;944199;147;27853;-79
2022/10/31 02:36:02;;;;;;;4.10;3.80;;;11.50;99.90;;;;;;934066;148;27391;-79
2022/10/31 02:38:35;;;;;;;3.80;3.43;;;11.50;99.90;;;;;;933720;148;27434;-79
2022/10/31 02:41:10;;;;;;;3.57;3.27;;;11.50;99.90;;;;;;932176;148;27394;-79
2022/10/31 02:43:46;;;;;;;5.93;3.53;;;11.50;99.90;;;;;;960507;145;27687;-79
2022/10/31 02:46:12;;;;;;;4.27;3.87;;;11.50;99.90;;;;;;960522;145;27418;-79
2022/10/31 02:48:39;;;;;;;5.43;3.93;;;11.50;99.90;;;;;;942899;147;27333;-79
2022/10/31 02:51:06;;;;;;;3.60;3.30;;;11.50;99.90;;;;;;945679;148;27383;-79
2022/10/31 02:53:35;;;;;;;5.43;3.77;;;11.50;99.90;;;;;;945035;147;27433;-79
2022/10/31 02:56:07;;;;;;;4.13;3.50;;;11.50;99.90;;;;;;955230;148;27322;-79
2022/10/31 02:58:34;;;;;;;3.80;3.50;;;11.60;99.90;;;;;;946311;147;27950;-80
2022/10/31 03:01:18;;;;;;;3.50;3.20;;;11.60;99.90;;;;;;951627;148;27383;-79
2022/10/31 03:03:45;;;;;;;3.77;3.37;;;11.60;99.90;;;;;;955638;145;27315;-80
2022/10/31 03:06:35;;;;;;;5.37;4.20;;;11.60;99.90;;;;;;946036;148;27408;-79
2022/10/31 03:09:04;;;;;;;5.20;3.67;;;11.60;99.90;;;;;;944778;148;27375;-80
2022/10/31 03:11:33;;;;;;;3.70;3.10;;;11.70;99.90;;;;;;941896;148;27319;-79
2022/10/31 03:14:00;;;;;;;4.30;3.53;;;11.70;99.90;;;;;;940760;148;27418;-80
2022/10/31 03:16:30;;;;;;;6.30;3.87;;;11.70;99.90;;;;;;960331;147;27286;-80
2022/10/31 03:19:08;;;;;;;3.80;3.40;;;11.80;99.90;;;;;;947188;146;27767;-80
2022/10/31 03:21:35;;;;;;;3.73;3.43;;;11.80;99.90;;;;;;941161;148;27312;-80
2022/10/31 03:24:01;;;;;;;6.83;3.80;;;11.80;99.90;;;;;;939495;147;27434;-80
2022/10/31 03:26:28;;;;;;;4.13;3.70;;;11.90;99.90;;;;;;943699;148;27400;-80
2022/10/31 03:29:00;;;;;;;6.10;3.47;;;11.90;99.90;;;;;;947134;148;27571;-80
2022/10/31 03:31:27;;;;;;;5.80;3.37;;;11.90;99.90;;;;;;945223;148;27402;-78
2022/10/31 03:33:54;;;;;;;3.83;3.47;;;12.00;99.90;;;;;;959032;145;27409;-77
2022/10/31 03:36:20;;;;;;;4.50;3.67;;;12.00;99.90;;;;;;959233;145;27238;-80
2022/10/31 03:38:47;;;;;;;4.57;4.03;;;12.00;99.90;;;;;;947820;148;27891;-80
2022/10/31 03:41:16;;;;;;;5.97;3.87;;;12.00;99.90;;;;;;962140;145;27266;-81
2022/10/31 03:43:42;;;;;;;5.30;3.40;;;12.00;99.90;;;;;;957578;148;27388;-80
2022/10/31 03:46:09;;;;;;;4.93;3.73;;;12.00;99.90;;;;;;958813;148;27321;-80
2022/10/31 03:48:36;;;;;;;6.77;3.83;;;12.00;99.90;;;;;;956864;148;27342;-80
2022/10/31 03:51:05;;;;;;;5.13;3.37;;;12.00;99.90;;;;;;955907;148;27363;-80
2022/10/31 03:53:35;;;;;;;6.43;3.83;;;12.00;99.90;;;;;;941342;148;27465;-79
2022/10/31 03:56:10;;;;;;;6.00;3.90;;;12.00;99.90;;;;;;945508;148;27506;-79
2022/10/31 03:58:45;;;;;;;4.10;3.70;;;12.00;99.90;;;;;;958490;145;27300;-80
2022/10/31 04:01:12;;;;;;;6.57;4.00;;;12.00;99.90;;;;;;958394;145;27290;-80
2022/10/31 04:03:39;;;;;;;5.43;3.70;;;12.00;99.90;;;;;;959648;145;27314;-79
2022/10/31 04:06:08;;;;;;;7.23;3.30;;;12.00;99.90;;;;;;956674;148;27350;-79
2022/10/31 04:08:35;;;;;;;4.40;3.90;;;12.00;99.90;;;;;;952020;148;27465;-79
2022/10/31 04:11:01;;;;;;;3.83;3.47;;;12.00;99.90;;;;;;949985;147;27416;-79
2022/10/31 04:13:28;;;;;;;5.23;4.10;;;12.10;99.90;;;;;;951878;147;27294;-79
2022/10/31 04:15:56;;;;;;;4.70;3.77;;;12.10;99.90;;;;;;961111;145;27310;-79
2022/10/31 04:18:22;;;;;;;6.23;3.70;;;12.10;99.90;;;;;;959899;145;27310;-79
2022/10/31 04:20:49;;;;;;;4.13;3.73;;;12.10;99.90;;;;;;960047;145;27265;-79
2022/10/31 04:23:25;;;;;;;5.30;3.70;;;12.10;99.90;;;;;;943709;148;27372;-79
2022/10/31 04:25:51;;;;;;;6.67;4.30;;;12.00;99.90;;;;;;961682;145;27439;-79
2022/10/31 04:28:18;;;;;;;5.20;3.87;;;12.10;99.90;;;;;;945967;148;27367;-79
2022/10/31 04:30:45;;;;;;;5.90;4.17;;;12.10;99.90;;;;;;946557;148;27472;-79
2022/10/31 04:33:11;;;;;;;6.73;3.57;;;12.10;99.90;;;;;;953737;146;27304;-79
2022/10/31 04:35:38;;;;;;;4.30;3.43;;;12.00;99.90;;;;;;955685;146;27284;-79
2022/10/31 04:38:04;;;;;;;5.50;4.03;;;12.10;99.90;;;;;;956780;146;27357;-79
2022/10/31 04:40:31;;;;;;;7.30;4.00;;;12.10;99.90;;;;;;938137;149;27494;-79
2022/10/31 04:42:58;;;;;;;6.57;3.80;;;12.00;99.90;;;;;;939288;148;27301;-81
2022/10/31 04:45:24;;;;;;;4.50;3.63;;;12.10;99.90;;;;;;937412;149;27396;-81
2022/10/31 04:47:51;;;;;;;4.97;3.80;;;12.10;99.90;;;;;;941478;148;27373;-81
2022/10/31 04:50:17;;;;;;;4.50;3.40;;;12.10;99.90;;;;;;947219;149;27388;-79
2022/10/31 04:52:44;;;;;;;4.73;3.60;;;12.10;99.90;;;;;;939561;149;27374;-79
2022/10/31 04:55:10;;;;;;;4.90;4.00;;;12.10;99.90;;;;;;956676;146;27361;-79
2022/10/31 04:57:40;;;;;;;4.20;3.80;;;12.10;99.90;;;;;;940450;149;27448;-79
2022/10/31 05:00:07;;;;;;;4.00;3.53;;;12.10;99.90;;;;;;933516;149;27348;-79
2022/10/31 05:02:34;;;;;;;7.30;3.33;;;12.10;99.90;;;;;;954739;148;27315;-80
2022/10/31 05:05:03;;;;;;;5.80;3.83;;;12.20;99.90;;;;;;938528;148;27372;-80
2022/10/31 05:07:27;;;;;;;5.03;4.53;;;12.10;99.90;;;;;;940628;149;27377;-80
2022/10/31 05:09:54;;;;;;;5.07;4.53;;;12.20;99.90;;;;;;950920;148;27467;-80
2022/10/31 05:12:20;;;;;;;5.90;5.23;;;12.10;99.90;;;;;;956529;148;27356;-81
2022/10/31 05:14:47;;;;;;;8.33;7.20;;;12.10;99.90;;;;;;940635;148;27359;-80
2022/10/31 05:17:14;;;;;;;7.90;7.07;;;12.00;99.90;;;;;;954934;146;27379;-80
2022/10/31 05:19:40;;;;;;;8.00;6.47;;;12.00;99.90;;;;;;945584;149;27360;-80
2022/10/31 05:22:07;;;;;;;6.03;5.47;;;12.00;99.90;;;;;;942969;148;27456;-80
2022/10/31 05:24:33;;;;;;;7.10;6.40;;;12.00;99.90;;;;;;938729;149;27465;-80
2022/10/31 05:27:00;;;;;;;8.13;6.30;;;11.90;99.90;;;;;;952810;146;27314;-80
2022/10/31 05:29:27;;;;;;;5.63;4.30;;;11.90;99.90;;;;;;957118;146;27320;-80
2022/10/31 05:31:53;;;;;;;7.00;4.60;;;11.90;99.90;;;;;;943874;147;27340;-80
2022/10/31 05:34:20;;;;;;;6.77;4.20;;;11.90;99.90;;;;;;936573;149;27456;-80
2022/10/31 05:36:46;;;;;;;6.80;4.23;;;11.80;99.90;;;;;;944334;147;27376;-80
2022/10/31 05:39:13;;;;;;;6.00;4.27;;;11.80;99.90;;;;;;921479;150;27411;-79
2022/10/31 05:41:39;;;;;;;5.17;4.40;;;11.80;99.90;;;;;;941821;147;27377;-79
2022/10/31 05:44:06;;;;;;;4.90;3.90;;;11.80;99.90;;;;;;940772;147;27750;-79
2022/10/31 05:46:33;;;;;;;4.57;4.03;;;11.80;99.90;;;;;;920336;151;27875;-80
2022/10/31 05:48:59;;;;;;;6.17;4.00;;;11.80;99.90;;;;;;929181;150;27460;-80
2022/10/31 05:51:26;;;;;;;6.27;4.17;;;11.90;99.90;;;;;;926951;150;27314;-80
2022/10/31 05:53:52;;;;;;;6.40;4.47;;;11.80;99.90;;;;;;932867;150;27826;-80
2022/10/31 05:56:19;;;;;;;6.27;4.23;;;11.80;99.90;;;;;;926419;149;27295;-80
2022/10/31 05:58:46;;;;;;;4.33;3.93;;;11.80;99.90;;;;;;926302;150;27306;-81
2022/10/31 06:01:12;;;;;;;6.17;3.90;;;11.80;99.90;;;;;;940434;147;27439;-80
2022/10/31 06:03:39;;;;;;;5.93;4.17;;;11.80;99.90;;;;;;937334;149;27372;-80
2022/10/31 06:06:05;;;;;;;4.90;4.00;;;11.70;99.90;;;;;;937880;149;27358;-80
2022/10/31 06:08:32;;;;;;;6.30;4.33;;;11.70;99.90;;;;;;938072;148;27392;-80
2022/10/31 06:10:59;;;;;;;7.87;4.87;;;11.70;99.90;;;;;;927459;149;27395;-80
2022/10/31 06:13:25;;;;;;;7.17;4.80;;;11.70;99.90;;;;;;918477;150;27476;-80
2022/10/31 06:15:52;;;;;;;8.13;4.73;;;11.60;99.90;;;;;;939496;149;27442;-80
2022/10/31 06:18:18;;;;;;;8.80;4.07;;;11.60;99.90;;;;;;939260;149;27381;-80
2022/10/31 06:20:45;;;;;;;6.30;4.63;;;11.60;99.90;;;;;;939629;149;27339;-80
2022/10/31 06:23:11;;;;;;;5.33;4.53;;;11.60;99.90;;;;;;941334;149;27306;-80
2022/10/31 06:25:38;;;;;;;6.53;5.43;;;11.60;99.90;;;;;;940930;148;27352;-80
2022/10/31 06:28:05;;;;;;;6.73;5.13;;;11.60;99.90;;;;;;940108;149;27383;-79
2022/10/31 06:33:09;;;;;;;8.47;5.93;;;11.60;99.90;;;;;;975169;144;36490;-81
2022/10/31 06:35:36;;;;;;;8.37;7.03;;;11.70;99.90;;;;;;960852;147;27387;-80
2022/10/31 06:38:02;;;;;;;8.10;7.30;;;11.70;99.90;;;;;;961278;147;27307;-80
2022/10/31 06:40:29;;;;;;;8.50;7.47;;;11.80;99.90;;;;;;961080;147;27331;-80
2022/10/31 06:42:58;;;;;;;11.60;8.27;;;11.80;99.90;;;;;;961218;147;27372;-80
2022/10/31 06:45:25;;;;;;;12.93;8.40;;;11.90;99.90;;;;;;961744;147;27383;-80
2022/10/31 06:47:54;;;;;;;8.97;7.37;;;12.00;99.90;;;;;;960879;147;27329;-80
2022/10/31 06:50:21;;;;;;;8.47;6.17;;;12.20;99.90;;;;;;960432;147;27360;-80
2022/10/31 06:52:53;;;;;;;7.00;5.80;;;12.40;99.90;;;;;;960924;147;27359;-81
2022/10/31 06:55:22;;;;;;;7.40;5.30;;;12.70;99.90;;;;;;960486;147;27425;-81
2022/10/31 06:57:46;;;;;;;8.73;4.97;;;13.00;99.90;;;;;;960270;147;27319;-80
2022/10/31 07:00:13;;;;;;;5.08;4.30;;;13.30;99.90;;;;;;959894;147;27402;-81
2022/10/31 07:02:39;;;;;;;5.57;4.37;;;13.60;99.90;;;;;;960848;147;27301;-81
2022/10/31 07:05:06;;;;;;;7.90;4.37;;;14.00;99.90;;;;;;960394;146;27271;-81
2022/10/31 07:07:32;;;;;;;5.35;4.35;;;14.30;99.90;;;;;;960245;146;27772;-80
2022/10/31 07:09:59;;;;;;;5.30;4.20;;;14.70;99.90;;;;;;961185;147;27424;-80
2022/10/31 07:12:25;;;;;;;5.12;3.90;;;15.00;99.90;;;;;;959314;147;27774;-80
2022/10/31 07:14:52;;;;;;;4.15;3.55;;;15.40;99.90;;;;;;961285;147;27268;-80
2022/10/31 07:17:19;;;;;;;3.90;3.50;;;15.80;99.90;;;;;;959410;147;27293;-80
2022/10/31 07:19:45;;;;;;;8.18;3.80;;;16.20;99.90;;;;;;961296;147;27271;-80
2022/10/31 07:22:12;;;;;;;4.53;3.60;;;16.60;99.90;;;;;;961037;147;27335;-81
2022/10/31 07:24:38;;;;;;;3.65;3.30;;;17.00;99.90;;;;;;961499;147;27635;-81
2022/10/31 07:29:40;;;;;;;4.87;3.52;;;17.50;99.90;;;;;;971707;145;40593;-79
2022/10/31 07:32:07;;;;;;;5.17;3.35;;;18.50;99.90;;;;;;961530;147;27452;-80
2022/10/31 07:34:33;;;;;;;4.12;2.80;;;18.90;99.90;;;;;;961614;147;27331;-79
2022/10/31 07:37:00;;;;;;;3.85;3.20;;;19.40;99.90;;;;;;961727;147;27318;-79
2022/10/31 07:39:26;;;;;;;3.12;2.83;;;19.80;99.90;;;;;;962323;147;27276;-79
2022/10/31 07:41:53;;;;;;;4.92;2.92;;;20.10;99.90;;;;;;962436;147;27378;-80
2022/10/31 07:44:20;;;;;;;5.25;3.60;;;20.50;99.90;;;;;;961127;147;27320;-83
2022/10/31 07:46:46;;;;;;;3.58;2.67;;;20.80;99.30;;;;;;956198;147;27410;-80
2022/10/31 07:49:13;;;;;;;3.02;2.62;;;21.10;97.80;;;;;;925366;152;27461;-80
2022/10/31 07:51:39;;;;;;;3.30;3.00;;;21.40;96.60;;;;;;922338;150;27292;-81
2022/10/31 07:54:06;;;;;;;5.03;3.50;;;21.70;95.80;;;;;;925033;150;27403;-83
2022/10/31 07:56:33;;;;;;;5.30;3.15;;;21.90;93.70;;;;;;923565;149;27430;-80
2022/10/31 07:58:59;;;;;;;4.47;3.50;;;22.00;91.80;;;;;;925843;150;27354;-80
2022/10/31 08:01:26;;;;;;;3.25;2.92;;;22.00;90.20;;;;;;925299;151;27371;-80
2022/10/31 08:03:52;;;;;;;4.33;3.10;;;21.90;88.20;;;;;;925564;150;27404;-80
2022/10/31 08:06:19;;;;;;;4.47;3.15;;;21.70;86.70;;;;;;924701;152;27319;-82
2022/10/31 08:08:45;;;;;;;3.37;3.08;;;21.50;85.30;;;;;;925377;151;27480;-82
2022/10/31 08:11:12;;;;;;;6.45;3.27;;;21.20;84.30;;;;;;923266;152;27314;-82
2022/10/31 08:13:39;;;;;;;4.22;3.00;;;20.90;83.90;;;;;;924388;152;27346;-81
2022/10/31 08:16:07;;;;;;;7.05;3.05;;;20.60;84.00;;;;;;923624;148;27323;-81
2022/10/31 08:18:32;;;;;;;4.72;3.35;;;20.30;84.60;;;;;;923223;151;27347;-81
2022/10/31 08:20:58;;;;;;;4.70;3.17;;;20.00;85.20;;;;;;923631;151;27398;-82
2022/10/31 08:23:25;;;;;;;6.50;3.58;;;19.90;87.30;;;;;;926325;149;27367;-81
2022/10/31 08:25:52;;;;;;;4.83;3.30;;;19.70;89.70;;;;;;926098;149;27435;-81
2022/10/31 08:28:18;;;;;;;4.42;3.58;;;19.60;90.10;;;;;;923278;151;27345;-81
2022/10/31 08:30:46;;;;;;;6.25;3.65;;;19.60;90.00;;;;;;919709;151;27312;-81
2022/10/31 08:33:11;;;;;;;4.65;3.52;;;19.50;89.70;;;;;;920381;154;27359;-81
2022/10/31 08:35:38;;;;;;;4.37;3.27;;;19.40;89.20;;;;;;921431;151;27396;-82
2022/10/31 08:38:05;;;;;;;4.92;3.40;;;19.20;88.60;;;;;;919887;154;27456;-81
2022/10/31 08:40:31;;;;;;;4.78;4.08;;;19.10;88.70;;;;;;922609;151;27434;-81
2022/10/31 08:43:00;;;;;;;4.05;3.58;;;18.90;89.50;;;;;;917779;154;28722;-81
2022/10/31 08:45:27;;;;;;;4.03;3.47;;;18.80;90.20;;;;;;919910;154;27404;-81
2022/10/31 08:47:54;;;;;;;3.95;3.35;;;18.70;90.80;;;;;;919665;151;27406;-81
2022/10/31 08:50:20;;;;;;;5.00;3.60;;;18.60;91.30;;;;;;918330;154;27338;-81
2022/10/31 08:52:47;;;;;;;6.75;4.55;;;18.50;91.90;;;;;;918300;151;27444;-81
2022/10/31 08:55:13;;;;;;;4.97;4.30;;;18.50;92.40;;;;;;918895;154;27360;-81
2022/10/31 08:57:40;;;;;;;4.37;3.72;;;18.50;92.50;;;;;;918886;152;27392;-81
2022/10/31 09:00:07;;;;;;;5.15;3.47;;;18.60;92.80;;;;;;920281;154;27417;-82
2022/10/31 09:02:33;;;;;;;4.53;4.05;;;18.60;93.20;;;;;;918815;153;27865;-82
2022/10/31 09:05:00;;;;;;;5.28;4.10;;;18.70;93.50;;;;;;919394;154;27348;-81
2022/10/31 09:07:26;;;;;;;6.40;3.80;;;18.80;93.70;;;;;;919503;154;27313;-81
2022/10/31 09:09:53;;;;;;;4.85;3.62;;;18.90;93.80;;;;;;918374;154;27386;-81
2022/10/31 09:12:20;;;;;;;4.67;4.10;;;19.00;93.90;;;;;;918886;154;27391;-82
2022/10/31 09:14:46;;;;;;;4.72;4.15;;;19.10;93.70;;;;;;919845;154;27364;-82
2022/10/31 09:17:13;;;;;;;6.10;4.05;;;19.20;93.60;;;;;;920042;151;27355;-82
2022/10/31 09:19:39;;;;;;;5.12;4.15;;;19.30;93.20;;;;;;917761;151;27402;-82
2022/10/31 09:22:06;;;;;;;4.40;4.00;;;19.40;93.30;;;;;;920447;154;27426;-82
2022/10/31 09:24:33;;;;;;;5.33;4.28;;;19.60;93.30;;;;;;921333;152;27338;-82
2022/10/31 09:26:59;;;;;;;6.72;4.15;;;19.70;93.50;;;;;;919432;154;27373;-82
2022/10/31 09:29:26;;;;;;;4.53;4.03;;;19.90;93.60;;;;;;919216;149;27453;-82
2022/10/31 09:31:52;;;;;;;5.42;4.30;;;20.00;93.40;;;;;;918449;149;27381;-82
2022/10/31 09:34:19;;;;;;;6.45;4.08;;;20.20;93.20;;;;;;917780;151;27415;-82
2022/10/31 09:36:46;;;;;;;4.95;4.40;;;20.40;92.80;;;;;;917774;149;27253;-83
2022/10/31 09:39:12;;;;;;;6.62;3.95;;;20.50;92.10;;;;;;918589;151;27303;-82
2022/10/31 09:41:57;;;;;;;4.67;3.75;;;20.70;91.40;;;;;;917440;152;27493;-82
2022/10/31 09:44:58;;;;;;;5.35;4.08;;;20.70;90.60;;;;;;917461;149;27340;-81
2022/10/31 09:47:42;;;;;;;5.12;3.92;;;20.80;90.10;;;;;;915312;153;27418;-81
2022/10/31 09:50:15;;;;;;;6.80;3.65;;;20.80;89.60;;;;;;916560;153;27410;-81
2022/10/31 09:52:41;;;;;;;7.22;4.65;;;20.80;89.50;;;;;;917244;153;27435;-82
2022/10/31 09:55:17;;;;;;;8.65;4.25;;;20.80;88.90;;;;;;917120;153;27329;-82
2022/10/31 09:57:44;;;;;;;5.58;4.22;;;20.80;88.10;;;;;;916836;153;27310;-82
2022/10/31 10:00:10;;;;;;;4.28;3.87;;;20.80;87.80;;;;;;917943;151;27352;-82
2022/10/31 10:02:49;;;;;;;4.87;4.28;;;20.80;87.80;;;;;;916364;152;27361;-82
2022/10/31 10:05:21;;;;;;;3.92;3.50;;;20.80;87.30;;;;;;916578;151;27426;-82
2022/10/31 10:07:55;;;;;;;6.45;3.62;;;20.80;87.10;;;;;;918027;151;27376;-82
2022/10/31 10:10:38;;;;;;;5.35;3.80;;;20.80;86.80;;;;;;917867;151;27461;-82
2022/10/31 10:13:07;;;;;;;3.75;3.42;;;20.70;86.70;;;;;;917694;153;27338;-82
2022/10/31 10:15:40;;;;;;;6.05;4.00;;;20.70;86.80;;;;;;919585;153;27398;-82
2022/10/31 10:18:18;;;;;;;4.72;3.67;;;20.70;86.90;;;;;;919501;152;27350;-82
2022/10/31 10:20:57;;;;;;;6.08;3.75;;;20.70;86.90;;;;;;917579;152;27335;-82
2022/10/31 10:23:54;;;;;;;5.20;3.70;;;20.60;86.90;;;;;;917747;152;27339;-82
2022/10/31 10:26:20;;;;;;;4.42;3.42;;;20.60;86.80;;;;;;918768;152;27346;-81
2022/10/31 10:28:47;;;;;;;6.62;3.70;;;20.60;86.80;;;;;;918384;153;27301;-82
2022/10/31 10:31:13;;;;;;;4.10;3.70;;;20.60;86.40;;;;;;918601;151;27340;-82
2022/10/31 10:33:40;;;;;;;6.33;3.77;;;20.60;86.40;;;;;;915037;153;27335;-82
2022/10/31 10:36:12;;;;;;;5.85;3.80;;;20.60;86.70;;;;;;918149;149;27426;-82
2022/10/31 10:38:45;;;;;;;5.67;4.05;;;20.50;87.10;;;;;;918228;153;27374;-82
2022/10/31 10:41:17;;;;;;;4.35;3.72;;;20.50;87.40;;;;;;917149;153;27328;-82
2022/10/31 10:43:43;;;;;;;4.90;3.90;;;20.50;87.60;;;;;;920420;149;27631;-82
2022/10/31 10:49:37;;;;;;;5.15;3.58;;;20.60;87.90;;;;;;918996;153;27351;-82
2022/10/31 10:52:15;;;;;;;5.17;3.45;;;20.60;88.00;;;;;;921643;151;27252;-82
2022/10/31 10:54:42;;;;;;;5.58;3.40;;;20.70;88.20;;;;;;916387;152;27318;-82
2022/10/31 10:57:11;;;;;;;3.80;3.42;;;20.70;88.20;;;;;;915443;153;27322;-82
2022/10/31 10:59:38;;;;;;;5.22;3.80;;;20.70;87.20;;;;;;916776;151;27435;-82
2022/10/31 11:02:04;;;;;;;4.55;3.92;;;20.80;88.00;;;;;;916799;153;27447;-82
2022/10/31 11:04:34;;;;;;;6.95;4.03;;;20.80;87.50;;;;;;916596;149;27351;-82
2022/10/31 11:07:06;;;;;;;4.50;3.77;;;20.90;87.10;;;;;;917268;149;27438;-81
2022/10/31 11:09:33;;;;;;;6.90;4.30;;;20.90;87.00;;;;;;917614;151;27353;-82
2022/10/31 11:11:59;;;;;;;7.55;4.35;;;21.00;86.80;;;;;;919285;151;27340;-82
2022/10/31 11:14:26;;;;;;;5.85;4.70;;;21.00;86.70;;;;;;918721;151;27334;-82
2022/10/31 11:16:55;;;;;;;7.28;4.30;;;21.10;86.30;;;;;;919116;151;27300;-82
2022/10/31 11:19:22;;;;;;;4.25;3.85;;;21.10;86.20;;;;;;917365;151;27344;-82
2022/10/31 11:21:49;;;;;;;6.03;4.30;;;21.10;85.90;;;;;;917964;150;27273;-82
2022/10/31 11:24:15;;;;;;;6.37;4.45;;;21.20;85.80;;;;;;918214;151;27390;-83
2022/10/31 11:26:42;;;;;;;4.90;4.10;;;21.20;85.30;;;;;;918458;151;27376;-82
2022/10/31 11:29:20;;;;;;;6.78;4.42;;;21.20;84.80;;;;;;919107;151;27367;-82
2022/10/31 11:31:47;;;;;;;5.65;4.15;;;21.30;84.70;;;;;;915802;153;27435;-82
2022/10/31 11:34:13;;;;;;;4.67;3.95;;;21.30;84.50;;;;;;918768;150;27326;-82
2022/10/31 11:36:40;;;;;;;7.85;3.85;;;21.40;85.10;;;;;;919092;149;27362;-83
2022/10/31 11:39:07;;;;;;;6.85;4.03;;;21.40;84.50;;;;;;916159;153;27384;-82
2022/10/31 11:41:38;;;;;;;6.45;4.22;;;21.50;84.60;;;;;;917659;153;27310;-83
2022/10/31 11:44:05;;;;;;;4.37;3.55;;;21.50;84.30;;;;;;917746;151;27427;-82
2022/10/31 11:46:41;;;;;;;5.90;4.55;;;21.60;84.20;;;;;;918904;149;27416;-82
2022/10/31 11:49:22;;;;;;;4.62;4.08;;;21.60;83.90;;;;;;915743;152;27498;-81
2022/10/31 11:51:52;;;;;;;5.58;4.20;;;21.70;83.50;;;;;;919995;149;27363;-82
2022/10/31 11:54:24;;;;;;;7.87;4.47;;;21.70;83.20;;;;;;918770;151;27329;-82
2022/10/31 11:56:50;;;;;;;5.80;4.62;;;21.80;82.60;;;;;;916182;149;27402;-82
2022/10/31 11:59:26;;;;;;;7.37;4.50;;;21.70;82.10;;;;;;917888;152;28032;-81
2022/10/31 12:01:52;;;;;;;7.08;4.47;;;21.80;82.00;;;;;;917980;149;27414;-81
2022/10/31 12:04:19;;;;;;;6.17;4.17;;;21.70;82.00;;;;;;916470;151;27340;-82
2022/10/31 12:06:49;;;;;;;5.33;4.45;;;21.70;82.10;;;;;;916584;150;27383;-82
2022/10/31 12:09:32;;;;;;;8.28;4.60;;;21.70;81.70;;;;;;918647;150;27483;-82
2022/10/31 12:12:11;;;;;;;4.58;4.00;;;21.70;81.70;;;;;;917367;153;27423;-82
2022/10/31 12:14:50;;;;;;;7.35;4.70;;;21.70;82.10;;;;;;917049;153;27320;-82
2022/10/31 12:17:25;;;;;;;5.72;4.08;;;21.70;82.30;;;;;;917047;150;27396;-82
2022/10/31 12:20:13;;;;;;;10.15;4.80;;;21.60;82.50;;;;;;917581;150;27475;-82
2022/10/31 12:22:45;;;;;;;5.67;4.28;;;21.60;82.80;;;;;;918595;153;27351;-81
2022/10/31 12:25:24;;;;;;;6.53;4.15;;;21.70;83.10;;;;;;917800;152;27313;-82
2022/10/31 12:28:15;;;;;;;11.53;5.30;;;21.70;83.40;;;;;;916414;151;27401;-82
2022/10/31 12:31:10;;;;;;;6.72;4.90;;;21.80;83.40;;;;;;916983;153;27312;-81
2022/10/31 12:33:55;;;;;;;6.17;4.37;;;21.80;83.10;;;;;;919607;152;27408;-82
2022/10/31 12:36:22;;;;;;;6.60;4.85;;;21.90;83.00;;;;;;919413;154;27391;-82
2022/10/31 12:39:13;;;;;;;8.03;4.92;;;21.90;82.80;;;;;;906337;152;27748;-82
2022/10/31 12:41:51;;;;;;;6.80;5.42;;;22.00;82.60;;;;;;920172;154;27442;-82
2022/10/31 12:44:39;;;;;;;7.85;5.42;;;22.00;82.20;;;;;;918494;154;27298;-82
2022/10/31 12:47:33;;;;;;;9.50;5.03;;;22.00;81.90;;;;;;918417;152;27341;-82
2022/10/31 12:50:12;;;;;;;8.53;5.03;;;22.10;82.00;;;;;;918922;151;27357;-82
2022/10/31 12:52:41;;;;;;;7.15;5.62;;;22.20;82.10;;;;;;919076;153;27371;-82
2022/10/31 12:55:41;;;;;;;6.92;5.80;;;22.20;82.00;;;;;;920845;154;27306;-81
2022/10/31 12:58:28;;;;;;;5.87;5.35;;;22.30;81.70;;;;;;919084;154;27333;-82
2022/10/31 13:01:13;;;;;;;8.60;5.67;;;22.30;81.60;;;;;;918132;154;27296;-82
2022/10/31 13:03:49;;;;;;;8.70;5.87;;;22.40;81.30;;;;;;918839;152;27360;-82